Time;durP1;ratioP1;P1;durP2;ratioP2;P2;SDS_P1;SDS_P2;PMS_P1;PMS_P2;Temp;Humidity;BMP_temperature;BMP_pressure;BME280_temperature;BME280_humidity;BME280_pressure;Samples;Min_cycle;Max_cycle;Signal;HPM_P1;HPM_P2
2022/11/24 00:00:51;;;;;;;29.90;8.35;;;;;;;;;;5052831;28;20064;-65
2022/11/24 00:03:17;;;;;;;23.55;8.45;;;;;;;;;;5052961;28;20124;-65
2022/11/24 00:05:43;;;;;;;30.05;8.63;;;;;;;;;;5051428;28;20367;-65
2022/11/24 00:08:09;;;;;;;30.23;8.63;;;;;;;;;;5051491;28;20037;-66
2022/11/24 00:10:35;;;;;;;32.78;9.75;;;;;;;;;;5034837;28;20041;-66
2022/11/24 00:13:01;;;;;;;35.42;8.13;;;;;;;;;;5051394;28;20358;-66
2022/11/24 00:15:27;;;;;;;27.80;8.48;;;;;;;;;;5051522;28;20063;-65
2022/11/24 00:17:53;;;;;;;32.25;9.43;;;;;;;;;;5052464;28;20041;-65
2022/11/24 00:20:19;;;;;;;27.83;8.30;;;;;;;;;;5051426;28;20052;-65
2022/11/24 00:22:45;;;;;;;30.50;8.82;;;;;;;;;;5052018;28;20037;-65
2022/11/24 00:25:11;;;;;;;22.95;7.65;;;;;;;;;;5052663;28;20493;-66
2022/11/24 00:27:37;;;;;;;26.27;8.32;;;;;;;;;;5052340;28;20390;-65
2022/11/24 00:30:04;;;;;;;33.58;8.10;;;;;;;;;;5051679;28;20036;-66
2022/11/24 00:32:30;;;;;;;29.90;8.35;;;;;;;;;;5050618;28;20470;-67
2022/11/24 00:34:56;;;;;;;26.55;8.52;;;;;;;;;;5054986;28;20041;-66
2022/11/24 00:37:22;;;;;;;26.00;8.50;;;;;;;;;;5055130;28;20041;-65
2022/11/24 00:39:48;;;;;;;26.33;7.90;;;;;;;;;;5054917;28;20044;-65
2022/11/24 00:42:14;;;;;;;29.98;7.90;;;;;;;;;;5056044;28;20048;-65
2022/11/24 00:44:40;;;;;;;38.75;9.10;;;;;;;;;;5056249;28;20044;-65
2022/11/24 00:47:06;;;;;;;31.17;8.15;;;;;;;;;;5054762;28;20044;-65
2022/11/24 00:49:32;;;;;;;33.13;8.10;;;;;;;;;;5054770;28;20497;-66
2022/11/24 00:51:58;;;;;;;30.38;7.68;;;;;;;;;;5054855;28;20036;-65
2022/11/24 00:54:24;;;;;;;24.83;7.25;;;;;;;;;;5038140;28;20064;-65
2022/11/24 00:56:50;;;;;;;26.38;7.53;;;;;;;;;;5054699;28;20119;-66
2022/11/24 00:59:17;;;;;;;31.38;6.95;;;;;;;;;;5054753;28;20124;-65
2022/11/24 01:01:43;;;;;;;25.10;7.07;;;;;;;;;;5054678;28;20048;-65
2022/11/24 01:04:09;;;;;;;29.63;7.18;;;;;;;;;;5054300;28;20041;-66
2022/11/24 01:06:35;;;;;;;36.00;6.78;;;;;;;;;;5038386;28;20052;-65
2022/11/24 01:09:01;;;;;;;33.78;7.70;;;;;;;;;;5054244;28;20037;-65
2022/11/24 01:14:16;;;;;;;29.48;6.43;;;;;;;;;;5055301;28;20041;-66
2022/11/24 01:16:42;;;;;;;28.15;5.65;;;;;;;;;;5055577;28;20473;-66
2022/11/24 01:19:08;;;;;;;40.40;7.68;;;;;;;;;;5055445;28;20102;-65
2022/11/24 01:21:34;;;;;;;31.25;7.28;;;;;;;;;;5054494;28;20041;-65
2022/11/24 01:24:00;;;;;;;33.72;6.28;;;;;;;;;;5054361;28;20037;-65
2022/11/24 01:26:26;;;;;;;41.47;6.13;;;;;;;;;;5054023;28;20108;-65
2022/11/24 01:28:53;;;;;;;31.13;5.90;;;;;;;;;;5077867;28;20520;-66
2022/11/24 01:31:19;;;;;;;25.25;5.40;;;;;;;;;;5034187;28;20091;-65
2022/11/24 01:33:45;;;;;;;35.60;7.45;;;;;;;;;;5041661;28;20053;-66
2022/11/24 01:36:12;;;;;;;34.40;5.70;;;;;;;;;;5037675;28;20416;-65
2022/11/24 01:38:38;;;;;;;36.45;6.95;;;;;;;;;;5053625;28;20049;-66
2022/11/24 01:41:24;;;;;;;29.95;5.57;;;;;;;;;;5053790;28;20048;-65
2022/11/24 01:43:51;;;;;;;34.72;6.03;;;;;;;;;;5036686;28;20493;-66
2022/11/24 01:46:17;;;;;;;48.08;7.63;;;;;;;;;;5053641;28;20141;-65
2022/11/24 01:48:46;;;;;;;26.45;5.68;;;;;;;;;;5053479;28;20037;-65
2022/11/24 01:51:23;;;;;;;40.35;5.97;;;;;;;;;;5053468;28;20041;-65
2022/11/24 01:53:53;;;;;;;37.05;5.47;;;;;;;;;;5053166;28;20041;-65
2022/11/24 01:56:19;;;;;;;33.10;5.10;;;;;;;;;;5054071;28;20049;-65
2022/11/24 01:58:47;;;;;;;26.98;5.25;;;;;;;;;;5036664;28;20085;-65
2022/11/24 02:01:13;;;;;;;28.70;4.82;;;;;;;;;;5053775;28;20036;-65
2022/11/24 02:03:41;;;;;;;29.95;4.72;;;;;;;;;;5053506;28;20037;-65
2022/11/24 02:06:10;;;;;;;27.45;4.45;;;;;;;;;;5036443;28;20037;-65
2022/11/24 02:08:52;;;;;;;25.80;4.43;;;;;;;;;;5036613;28;20115;-66
2022/11/24 02:11:20;;;;;;;27.08;5.72;;;;;;;;;;5036362;28;20033;-65
2022/11/24 02:13:47;;;;;;;21.75;4.28;;;;;;;;;;5053373;28;20041;-65
2022/11/24 02:16:13;;;;;;;35.40;5.07;;;;;;;;;;5052849;28;20076;-66
2022/11/24 02:18:40;;;;;;;27.27;4.78;;;;;;;;;;5053162;28;20493;-65
2022/11/24 02:21:06;;;;;;;32.45;4.55;;;;;;;;;;5036441;28;20064;-65
2022/11/24 02:23:41;;;;;;;26.58;4.78;;;;;;;;;;5052841;28;20045;-65
2022/11/24 02:26:10;;;;;;;25.67;4.22;;;;;;;;;;5052688;28;20048;-66
2022/11/24 02:28:36;;;;;;;21.27;5.03;;;;;;;;;;5053158;28;20044;-65
2022/11/24 02:31:04;;;;;;;21.02;4.13;;;;;;;;;;5052533;28;20604;-66
2022/11/24 02:33:30;;;;;;;19.52;4.03;;;;;;;;;;5054216;28;20033;-65
2022/11/24 02:35:56;;;;;;;26.35;4.10;;;;;;;;;;5036074;28;20037;-65
2022/11/24 02:38:29;;;;;;;19.77;4.45;;;;;;;;;;5053098;28;20045;-66
2022/11/24 02:40:55;;;;;;;28.15;4.50;;;;;;;;;;5052344;28;20558;-65
2022/11/24 02:43:22;;;;;;;20.80;4.63;;;;;;;;;;5052780;28;20094;-66
2022/11/24 02:45:48;;;;;;;24.52;5.13;;;;;;;;;;5052344;28;20037;-65
2022/11/24 02:48:15;;;;;;;20.30;3.88;;;;;;;;;;5036129;28;20136;-66
2022/11/24 02:50:41;;;;;;;31.92;5.43;;;;;;;;;;5052319;28;20041;-66
2022/11/24 02:53:07;;;;;;;26.77;4.78;;;;;;;;;;5052739;28;20041;-65
2022/11/24 02:55:33;;;;;;;33.28;4.88;;;;;;;;;;5052039;28;20084;-65
2022/11/24 02:57:59;;;;;;;27.83;4.72;;;;;;;;;;5035994;28;20047;-66
2022/11/24 03:00:25;;;;;;;17.63;3.90;;;;;;;;;;5053548;28;20068;-66
2022/11/24 03:02:51;;;;;;;24.35;4.05;;;;;;;;;;5052286;28;20381;-66
2022/11/24 03:05:17;;;;;;;31.05;4.90;;;;;;;;;;5085687;28;20127;-65
2022/11/24 03:07:43;;;;;;;30.30;4.13;;;;;;;;;;5051841;28;20041;-65
2022/11/24 03:10:09;;;;;;;17.60;4.10;;;;;;;;;;5051855;28;20048;-65
2022/11/24 03:12:35;;;;;;;31.10;4.60;;;;;;;;;;5051728;28;20094;-65
2022/11/24 03:15:02;;;;;;;33.83;5.53;;;;;;;;;;5052170;28;20045;-65
2022/11/24 03:17:28;;;;;;;31.67;4.22;;;;;;;;;;5017059;28;20049;-65
2022/11/24 03:19:54;;;;;;;25.77;5.20;;;;;;;;;;5052448;28;20421;-65
2022/11/24 03:22:20;;;;;;;25.65;4.60;;;;;;;;;;5051899;28;20119;-65
2022/11/24 03:24:47;;;;;;;24.92;4.75;;;;;;;;;;5052037;28;20045;-65
2022/11/24 03:27:13;;;;;;;24.55;4.18;;;;;;;;;;5052036;28;20049;-66
2022/11/24 03:29:39;;;;;;;26.45;4.22;;;;;;;;;;5052859;28;20037;-66
2022/11/24 03:32:05;;;;;;;24.50;3.85;;;;;;;;;;5051663;28;20095;-66
2022/11/24 03:34:31;;;;;;;24.13;4.78;;;;;;;;;;5052222;28;20052;-66
2022/11/24 03:36:57;;;;;;;44.63;6.78;;;;;;;;;;5035467;28;20048;-66
2022/11/24 03:39:23;;;;;;;23.17;4.60;;;;;;;;;;5052970;28;20080;-65
2022/11/24 03:41:52;;;;;;;25.88;4.15;;;;;;;;;;5035438;28;20049;-66
2022/11/24 03:44:18;;;;;;;33.83;4.10;;;;;;;;;;5035611;28;20426;-66
2022/11/24 03:46:44;;;;;;;23.55;3.85;;;;;;;;;;5051569;28;20476;-65
2022/11/24 03:49:11;;;;;;;37.28;5.50;;;;;;;;;;5051494;28;20043;-65
2022/11/24 03:51:37;;;;;;;30.50;4.85;;;;;;;;;;5051619;28;20044;-65
2022/11/24 03:54:03;;;;;;;26.98;3.90;;;;;;;;;;5051219;28;20529;-65
2022/11/24 03:56:29;;;;;;;29.10;4.28;;;;;;;;;;5051703;28;20048;-66
2022/11/24 03:58:55;;;;;;;27.55;4.22;;;;;;;;;;5052659;28;20477;-65
2022/11/24 04:01:21;;;;;;;29.10;4.68;;;;;;;;;;5051652;28;20041;-66
2022/11/24 04:03:47;;;;;;;22.42;4.15;;;;;;;;;;5051301;28;20098;-65
2022/11/24 04:06:13;;;;;;;28.13;3.90;;;;;;;;;;5052892;28;20045;-66
2022/11/24 04:08:39;;;;;;;27.02;3.40;;;;;;;;;;5037497;28;20041;-66
2022/11/24 04:11:06;;;;;;;28.85;4.03;;;;;;;;;;5056522;28;20059;-66
2022/11/24 04:13:32;;;;;;;20.67;4.20;;;;;;;;;;5055148;28;20083;-66
2022/11/24 04:15:58;;;;;;;20.92;4.00;;;;;;;;;;5055540;28;20079;-66
2022/11/24 04:18:24;;;;;;;19.88;3.63;;;;;;;;;;5038633;28;20041;-66
2022/11/24 04:20:51;;;;;;;22.23;3.75;;;;;;;;;;5055357;28;20120;-66
2022/11/24 04:23:17;;;;;;;26.55;4.05;;;;;;;;;;5056345;28;20037;-66
2022/11/24 04:25:43;;;;;;;27.38;4.47;;;;;;;;;;5055165;28;20448;-66
2022/11/24 04:28:09;;;;;;;18.60;3.67;;;;;;;;;;5055283;28;20518;-65
2022/11/24 04:30:37;;;;;;;27.80;5.05;;;;;;;;;;5054990;28;20048;-66
2022/11/24 04:33:03;;;;;;;24.05;4.32;;;;;;;;;;5054875;28;20051;-66
2022/11/24 04:35:29;;;;;;;20.55;3.97;;;;;;;;;;5054626;28;20045;-65
2022/11/24 04:37:55;;;;;;;31.40;3.60;;;;;;;;;;5055706;28;20099;-66
2022/11/24 04:40:21;;;;;;;21.40;3.83;;;;;;;;;;5054720;28;20041;-66
2022/11/24 04:42:54;;;;;;;18.75;3.70;;;;;;;;;;5054717;28;20044;-66
2022/11/24 04:45:20;;;;;;;24.80;3.75;;;;;;;;;;5038056;28;20120;-65
2022/11/24 04:47:47;;;;;;;28.92;4.50;;;;;;;;;;5054945;28;20120;-66
2022/11/24 04:50:13;;;;;;;18.55;4.38;;;;;;;;;;5056021;28;20048;-66
2022/11/24 04:52:39;;;;;;;17.38;4.30;;;;;;;;;;5054560;28;20499;-66
2022/11/24 04:55:05;;;;;;;15.90;3.60;;;;;;;;;;5037784;28;20187;-66
2022/11/24 04:57:31;;;;;;;23.55;4.18;;;;;;;;;;5054716;28;20053;-66
2022/11/24 04:59:57;;;;;;;18.55;3.38;;;;;;;;;;5054222;28;20060;-66
2022/11/24 05:02:23;;;;;;;20.15;3.88;;;;;;;;;;5054684;28;20338;-65
2022/11/24 05:04:50;;;;;;;18.33;3.72;;;;;;;;;;5055349;28;20041;-66
2022/11/24 05:07:17;;;;;;;17.58;3.47;;;;;;;;;;5055775;28;20037;-65
2022/11/24 05:12:30;;;;;;;20.27;3.80;;;;;;;;;;5054442;28;20049;-66
2022/11/24 05:14:57;;;;;;;19.75;4.38;;;;;;;;;;5053961;28;20048;-65
2022/11/24 05:17:23;;;;;;;13.57;3.53;;;;;;;;;;5055600;28;20040;-66
2022/11/24 05:19:49;;;;;;;29.58;4.53;;;;;;;;;;5036887;28;20041;-66
2022/11/24 05:22:15;;;;;;;21.92;3.78;;;;;;;;;;5053945;28;20076;-65
2022/11/24 05:24:41;;;;;;;16.92;3.78;;;;;;;;;;5055470;28;20045;-65
2022/11/24 05:27:07;;;;;;;16.60;3.50;;;;;;;;;;5053820;28;20040;-65
2022/11/24 05:29:34;;;;;;;18.13;3.70;;;;;;;;;;5054422;28;20413;-66
2022/11/24 05:32:00;;;;;;;27.25;4.43;;;;;;;;;;5054021;28;20044;-66
2022/11/24 05:34:27;;;;;;;15.38;3.70;;;;;;;;;;5054397;28;20037;-65
2022/11/24 05:36:53;;;;;;;19.23;3.42;;;;;;;;;;5053708;28;20044;-65
2022/11/24 05:39:20;;;;;;;19.75;3.30;;;;;;;;;;5053960;28;20167;-66
2022/11/24 05:41:46;;;;;;;23.83;3.90;;;;;;;;;;5036802;28;20037;-65
2022/11/24 05:44:12;;;;;;;19.70;4.15;;;;;;;;;;5053716;28;20111;-66
2022/11/24 05:46:38;;;;;;;21.20;3.58;;;;;;;;;;5053635;28;20045;-65
2022/11/24 05:49:04;;;;;;;15.80;3.42;;;;;;;;;;5053396;28;20124;-66
2022/11/24 05:51:32;;;;;;;21.52;3.75;;;;;;;;;;5054897;28;20473;-66
2022/11/24 05:53:58;;;;;;;24.80;4.20;;;;;;;;;;5053062;28;20057;-65
2022/11/24 05:56:24;;;;;;;17.40;3.88;;;;;;;;;;5053435;28;20055;-66
2022/11/24 05:58:50;;;;;;;20.50;3.78;;;;;;;;;;5053291;28;20136;-65
2022/11/24 06:01:16;;;;;;;18.13;3.50;;;;;;;;;;5053509;28;20037;-66
2022/11/24 06:03:42;;;;;;;22.02;4.15;;;;;;;;;;5053005;28;20044;-65
2022/11/24 06:06:08;;;;;;;28.63;5.00;;;;;;;;;;5053376;28;20037;-66
2022/11/24 06:08:34;;;;;;;25.73;3.90;;;;;;;;;;5053116;28;20148;-65
2022/11/24 06:11:16;;;;;;;17.70;4.00;;;;;;;;;;5053071;28;20044;-66
2022/11/24 06:13:43;;;;;;;21.40;3.97;;;;;;;;;;5053957;28;20493;-66
2022/11/24 06:16:09;;;;;;;20.92;4.28;;;;;;;;;;5036508;28;20051;-65
2022/11/24 06:18:36;;;;;;;20.92;4.00;;;;;;;;;;5053182;28;20051;-65
2022/11/24 06:21:02;;;;;;;19.95;4.07;;;;;;;;;;5053247;28;20033;-65
2022/11/24 06:23:28;;;;;;;16.45;3.60;;;;;;;;;;5046602;28;20040;-65
2022/11/24 06:25:57;;;;;;;18.10;3.30;;;;;;;;;;5054134;28;20489;-65
2022/11/24 06:28:23;;;;;;;26.10;4.00;;;;;;;;;;5035416;28;20045;-65
2022/11/24 06:30:49;;;;;;;18.83;4.57;;;;;;;;;;5033340;28;20486;-65
2022/11/24 06:33:15;;;;;;;21.30;3.88;;;;;;;;;;5035483;28;20415;-65
2022/11/24 06:35:41;;;;;;;25.10;3.80;;;;;;;;;;5052933;28;20068;-65
2022/11/24 06:38:07;;;;;;;18.15;3.75;;;;;;;;;;5053945;28;20087;-65
2022/11/24 06:40:33;;;;;;;18.13;3.83;;;;;;;;;;5052822;28;20052;-65
2022/11/24 06:42:59;;;;;;;27.70;4.35;;;;;;;;;;5054038;28;20048;-65
2022/11/24 06:45:25;;;;;;;19.00;3.92;;;;;;;;;;5053376;28;20055;-65
2022/11/24 06:47:55;;;;;;;14.90;3.88;;;;;;;;;;5052780;28;20036;-65
2022/11/24 06:50:21;;;;;;;19.67;3.83;;;;;;;;;;5053603;28;20040;-65
2022/11/24 06:52:47;;;;;;;29.35;3.85;;;;;;;;;;5052506;28;20076;-65
2022/11/24 06:55:14;;;;;;;27.33;5.43;;;;;;;;;;5053159;28;20057;-65
2022/11/24 06:57:40;;;;;;;19.20;3.75;;;;;;;;;;5052360;28;20119;-65
2022/11/24 07:00:06;;;;;;;17.27;3.92;;;;;;;;;;5053429;28;20128;-65
2022/11/24 07:02:33;;;;;;;22.23;3.88;;;;;;;;;;5052253;28;20098;-65
2022/11/24 07:04:59;;;;;;;12.82;3.95;;;;;;;;;;5035183;28;20513;-65
2022/11/24 07:07:25;;;;;;;19.38;3.53;;;;;;;;;;5051900;28;20508;-66
2022/11/24 07:09:51;;;;;;;23.20;3.72;;;;;;;;;;5051594;28;20078;-70
2022/11/24 07:12:17;;;;;;;22.67;3.70;;;;;;;;;;5052433;28;20392;-70
2022/11/24 07:14:43;;;;;;;13.50;3.72;;;;;;;;;;5053582;28;20045;-70
2022/11/24 07:17:09;;;;;;;21.25;4.15;;;;;;;;;;5051990;28;20037;-70
2022/11/24 07:19:35;;;;;;;23.67;3.95;;;;;;;;;;5052040;28;20120;-70
2022/11/24 07:22:01;;;;;;;15.70;3.90;;;;;;;;;;5052107;28;20045;-70
2022/11/24 07:24:27;;;;;;;16.48;4.20;;;;;;;;;;5052410;28;20037;-70
2022/11/24 07:26:53;;;;;;;13.07;3.30;;;;;;;;;;5052230;28;20120;-69
2022/11/24 07:29:19;;;;;;;17.38;4.25;;;;;;;;;;5051229;28;20429;-69
2022/11/24 07:31:46;;;;;;;11.95;3.75;;;;;;;;;;5051147;28;20037;-69
2022/11/24 07:34:13;;;;;;;12.55;3.25;;;;;;;;;;5051405;28;20377;-69
2022/11/24 07:36:39;;;;;;;18.70;3.53;;;;;;;;;;5047465;28;20048;-69
2022/11/24 07:39:06;;;;;;;17.08;3.20;;;;;;;;;;5051498;28;20131;-68
2022/11/24 07:41:32;;;;;;;17.25;3.20;;;;;;;;;;5052305;28;20473;-69
2022/11/24 07:43:58;;;;;;;14.75;3.88;;;;;;;;;;5051692;28;20485;-69
2022/11/24 07:46:24;;;;;;;16.58;3.33;;;;;;;;;;5052867;28;20099;-69
2022/11/24 07:48:50;;;;;;;17.20;3.25;;;;;;;;;;5051610;28;20090;-70
2022/11/24 07:51:16;;;;;;;19.48;3.67;;;;;;;;;;5052799;28;20116;-69
2022/11/24 07:53:43;;;;;;;16.80;4.25;;;;;;;;;;5051738;28;20071;-69
2022/11/24 07:56:09;;;;;;;16.00;3.25;;;;;;;;;;5052772;28;20158;-70
2022/11/24 07:58:36;;;;;;;10.90;3.42;;;;;;;;;;5051523;28;20048;-69
2022/11/24 08:01:10;;;;;;;10.25;3.47;;;;;;;;;;5052030;28;20466;-69
2022/11/24 08:03:36;;;;;;;13.90;4.10;;;;;;;;;;5035596;28;20045;-69
2022/11/24 08:06:02;;;;;;;14.90;4.00;;;;;;;;;;5051661;28;20044;-69
2022/11/24 08:08:32;;;;;;;17.38;4.13;;;;;;;;;;5050979;28;20029;-69
2022/11/24 08:10:58;;;;;;;22.27;4.05;;;;;;;;;;5050221;28;20481;-69
2022/11/24 08:13:24;;;;;;;15.55;4.43;;;;;;;;;;5050867;28;20036;-69
2022/11/24 08:15:50;;;;;;;15.32;4.53;;;;;;;;;;5034528;28;20041;-69
2022/11/24 08:18:16;;;;;;;15.07;4.90;;;;;;;;;;5051060;28;20484;-68
2022/11/24 08:20:42;;;;;;;22.15;5.93;;;;;;;;;;5051537;28;20541;-68
2022/11/24 08:23:08;;;;;;;20.25;5.10;;;;;;;;;;5051507;28;20397;-69
2022/11/24 08:25:35;;;;;;;17.30;4.80;;;;;;;;;;5051423;28;20041;-69
2022/11/24 08:28:02;;;;;;;16.17;4.43;;;;;;;;;;5051745;28;20378;-69
2022/11/24 08:30:29;;;;;;;16.23;4.40;;;;;;;;;;5052757;28;20041;-69
2022/11/24 08:32:55;;;;;;;18.50;4.47;;;;;;;;;;5051429;28;20120;-69
2022/11/24 08:35:21;;;;;;;11.45;3.97;;;;;;;;;;5052656;28;20134;-65
2022/11/24 08:37:47;;;;;;;12.57;5.03;;;;;;;;;;5051424;28;20049;-65
2022/11/24 08:40:13;;;;;;;14.02;4.05;;;;;;;;;;5051520;28;20522;-66
2022/11/24 08:42:39;;;;;;;11.30;3.20;;;;;;;;;;5034638;28;20444;-65
2022/11/24 08:45:05;;;;;;;17.33;3.47;;;;;;;;;;5051052;28;20111;-65
2022/11/24 08:47:32;;;;;;;13.55;2.95;;;;;;;;;;5051095;28;20041;-65
2022/11/24 08:49:58;;;;;;;12.35;2.70;;;;;;;;;;5034629;28;20124;-65
2022/11/24 08:52:24;;;;;;;14.43;3.28;;;;;;;;;;5051482;28;20074;-65
2022/11/24 08:54:50;;;;;;;19.33;2.70;;;;;;;;;;5019583;28;20057;-66
2022/11/24 08:57:16;;;;;;;14.65;2.70;;;;;;;;;;5056025;28;20041;-65
2022/11/24 08:59:42;;;;;;;14.05;2.50;;;;;;;;;;5055089;28;20041;-65
2022/11/24 09:02:12;;;;;;;11.55;2.40;;;;;;;;;;5037996;28;20068;-66
2022/11/24 09:04:38;;;;;;;12.02;2.67;;;;;;;;;;5055881;28;20091;-66
2022/11/24 09:07:05;;;;;;;14.20;2.08;;;;;;;;;;5054934;28;20063;-65
2022/11/24 09:09:31;;;;;;;13.95;2.47;;;;;;;;;;5055692;28;20090;-65
2022/11/24 09:11:57;;;;;;;12.88;2.30;;;;;;;;;;5055721;28;20098;-65
2022/11/24 09:14:23;;;;;;;10.80;2.65;;;;;;;;;;5055713;28;20123;-65
2022/11/24 09:16:49;;;;;;;12.75;2.53;;;;;;;;;;5055756;28;20041;-65
2022/11/24 09:19:15;;;;;;;8.77;2.28;;;;;;;;;;5054288;28;20044;-70
2022/11/24 09:21:41;;;;;;;10.70;2.00;;;;;;;;;;5054286;28;20501;-65
2022/11/24 09:24:08;;;;;;;6.75;2.05;;;;;;;;;;5037659;28;20048;-65
2022/11/24 09:26:35;;;;;;;7.60;2.28;;;;;;;;;;5054009;28;20485;-65
2022/11/24 09:29:03;;;;;;;10.38;1.92;;;;;;;;;;5054576;28;20037;-68
2022/11/24 09:31:33;;;;;;;10.23;1.90;;;;;;;;;;5052673;28;20497;-68
2022/11/24 09:34:00;;;;;;;10.23;1.77;;;;;;;;;;5055392;28;20048;-69
2022/11/24 09:36:27;;;;;;;14.30;2.10;;;;;;;;;;5055628;28;20098;-68
2022/11/24 09:38:53;;;;;;;6.07;2.08;;;;;;;;;;5054115;28;20493;-69
2022/11/24 09:41:19;;;;;;;10.15;1.80;;;;;;;;;;5054196;28;20077;-70
2022/11/24 09:44:06;;;;;;;10.65;2.10;;;8.60;99.90;;;;;;5054526;28;20045;-69
2022/11/24 09:46:35;;;;;;;13.32;2.25;;;;;;;;;;5053798;28;20520;-70
2022/11/24 09:49:02;;;;;;;10.13;2.42;;;;;;;;;;5053856;28;20041;-69
2022/11/24 09:51:31;;;;;;;10.63;2.17;;;;;;;;;;5053794;28;20045;-69
2022/11/24 09:54:02;;;;;;;9.70;2.33;;;;;;;;;;5054794;28;20110;-69
2022/11/24 09:56:28;;;;;;;10.13;2.40;;;;;;;;;;5053555;28;20053;-69
2022/11/24 09:59:04;;;;;;;8.00;2.55;;;;;;;;;;5053491;28;20546;-69
2022/11/24 10:01:38;;;;;;;11.48;2.30;;;;;;;;;;5086293;28;20047;-69
2022/11/24 10:04:09;;;;;;;16.63;2.88;;;;;;;;;;5053825;28;20124;-69
2022/11/24 10:06:41;;;;;;;15.77;2.55;;;;;;;;;;5054454;28;20037;-69
2022/11/24 10:09:20;;;;;;;10.50;3.40;;;;;;;;;;5036834;28;20037;-69
2022/11/24 10:12:04;;;;;;;9.82;2.95;;;;;;;;;;5054624;28;20090;-69
2022/11/24 10:14:56;;;;;;;7.55;2.70;;;9.00;99.90;;;;;;5053693;28;20032;-68
2022/11/24 10:17:22;;;;;;;11.48;3.35;;;;;;;;;;5053501;28;20033;-68
2022/11/24 10:19:51;;;;;;;9.60;3.33;;;;;;;;;;5054511;28;20041;-68
2022/11/24 10:22:33;;;;;;;16.60;3.78;;;;;;;;;;5052378;28;20037;-68
2022/11/24 10:24:59;;;;;;;18.20;3.58;;;;;;;;;;5052150;28;20041;-68
2022/11/24 10:27:29;;;;;;;15.30;3.28;;;;;;;;;;5051501;28;20217;-68
2022/11/24 10:29:55;;;;;;;21.73;3.80;;;;;;;;;;5050716;28;20036;-67
2022/11/24 10:32:22;;;;;;;12.10;4.15;;;;;;;;;;5050956;28;20428;-67
2022/11/24 10:34:49;;;;;;;19.60;4.25;;;;;;;;;;5053595;28;20424;-64
2022/11/24 10:37:40;;;;;;;14.95;3.53;;;;;;;;;;5054097;28;20045;-64
2022/11/24 10:40:11;;;;;;;14.10;3.40;;;;;;;;;;5036556;28;20041;-64
2022/11/24 10:42:38;;;;;;;15.23;3.80;;;;;;;;;;5052399;28;20095;-64
2022/11/24 10:45:08;;;;;;;16.98;3.53;;;;;;;;;;5036497;28;20374;-64
2022/11/24 10:47:34;;;;;;;16.00;4.82;;;;;;;;;;5052930;28;20041;-64
2022/11/24 10:50:03;;;;;;;9.38;3.40;;;;;;;;;;5036461;28;20124;-65
2022/11/24 10:52:31;;;;;;;17.33;4.25;;;;;;;;;;5052496;28;20047;-64
2022/11/24 10:55:01;;;;;;;15.48;4.95;;;;;;;;;;5052274;28;20084;-64
2022/11/24 10:57:37;;;;;;;11.88;4.30;;;;;;;;;;5053333;28;20048;-64
2022/11/24 11:00:19;;;;;;;25.85;5.97;;;;;;;;;;5052135;28;20119;-64
2022/11/24 11:02:47;;;;;;;14.13;4.18;;;;;;;;;;5051882;28;20037;-64
2022/11/24 11:05:25;;;;;;;12.07;3.92;;;;;;;;;;5035370;28;20443;-64
2022/11/24 11:08:09;;;;;;;15.85;4.65;;;;;;;;;;5051694;28;20048;-64
2022/11/24 11:10:35;;;;;;;21.90;4.85;;;;;;;;;;5052179;28;20119;-64
2022/11/24 11:13:19;;;;;;;19.35;6.35;;;;;;;;;;5051983;28;20170;-65
2022/11/24 11:15:45;;;;;;;19.52;6.07;;;;;;;;;;5051886;28;20044;-64
2022/11/24 11:18:15;;;;;;;17.45;4.80;;;;;;;;;;5051376;28;20045;-64
2022/11/24 11:20:48;;;;;;;16.45;4.40;;;;;;;;;;5053511;28;20083;-64
2022/11/24 11:23:19;;;;;;;13.00;3.75;;;;;;;;;;5051983;28;20170;-65
2022/11/24 11:25:45;;;;;;;15.50;4.20;;;;;;;;;;5051919;28;20484;-65
2022/11/24 11:28:28;;;;;;;20.20;4.43;;;;;;;;;;5053044;28;20037;-64
2022/11/24 11:30:57;;;;;;;16.40;4.55;;;;;;;;;;5052080;28;20048;-64
2022/11/24 11:33:25;;;;;;;17.65;4.93;;;;;;;;;;5051867;28;20041;-65
2022/11/24 11:35:52;;;;;;;27.05;6.82;;;;;;;;;;5051906;28;20052;-65
2022/11/24 11:38:18;;;;;;;16.70;4.13;;;;;;;;;;5051482;28;20041;-64
2022/11/24 11:40:44;;;;;;;19.13;4.60;;;;;;;;;;5051423;28;20047;-64
2022/11/24 11:43:31;;;;;;;14.43;5.25;;;;;;;;;;5051841;28;20040;-67
2022/11/24 11:46:08;;;;;;;16.98;6.00;;;10.90;99.90;;;;;;5051869;28;20053;-68
2022/11/24 11:48:35;;;;;;;14.20;5.15;;;;;;;;;;5051578;28;20037;-69
2022/11/24 11:51:28;;;;;;;14.38;4.80;;;11.00;99.90;;;;;;5052041;28;20124;-68
2022/11/24 11:54:08;;;;;;;14.57;4.50;;;;;;;;;;5050805;28;20375;-68
2022/11/24 11:56:39;;;;;;;16.63;4.63;;;;;;;;;;5053035;28;20045;-68
2022/11/24 11:59:11;;;;;;;14.13;5.20;;;;;;;;;;5052619;28;20112;-68
2022/11/24 12:01:46;;;;;;;;;;;10.90;99.90;;;;;;5051860;28;20389;-68
2022/11/24 12:04:15;;;;;;;12.25;4.22;;;;;;;;;;5052855;28;20308;-68
2022/11/24 12:06:47;;;;;;;13.70;4.68;;;;;;;;;;5052572;28;20125;-68
2022/11/24 12:09:20;;;;;;;16.65;4.97;;;;;;;;;;5052666;28;20036;-68
2022/11/24 12:11:52;;;;;;;16.70;4.80;;;;;;;;;;5051573;28;20052;-68
2022/11/24 12:14:18;;;;;;;19.80;4.53;;;;;;;;;;5052582;28;20040;-68
2022/11/24 12:17:04;;;;;;;19.98;4.55;;;;;;;;;;5052685;28;20076;-68
2022/11/24 12:20:00;;;;;;;21.58;5.13;;;10.90;99.90;;;;;;5052670;28;20040;-68
2022/11/24 12:22:38;;;;;;;16.25;3.90;;;;;;;;;;5034754;28;20047;-68
2022/11/24 12:25:10;;;;;;;19.88;4.70;;;;;;;;;;5051109;28;20052;-68
2022/11/24 12:27:42;;;;;;;26.35;5.35;;;;;;;;;;5052509;28;20040;-68
2022/11/24 12:30:16;;;;;;;25.70;5.15;;;;;;;;;;5054779;28;20510;-69
2022/11/24 12:32:42;;;;;;;20.85;4.15;;;;;;;;;;5055421;28;20041;-69
2022/11/24 12:35:11;;;;;;;17.25;3.85;;;;;;;;;;5038743;28;20393;-68
2022/11/24 12:37:40;;;;;;;16.92;3.15;;;;;;;;;;5056230;28;20044;-65
2022/11/24 12:40:24;;;;;;;15.23;3.17;;;;;;;;;;5054932;28;20477;-65
2022/11/24 12:43:00;;;;;;;19.27;3.47;;;;;;;;;;5088743;28;20486;-65
2022/11/24 12:45:29;;;;;;;17.70;3.95;;;;;;;;;;5054767;28;20074;-65
2022/11/24 12:47:55;;;;;;;12.63;2.97;;;;;;;;;;5054735;28;20097;-65
2022/11/24 12:50:26;;;;;;;19.75;3.50;;;11.80;99.90;;;;;;5055270;28;20041;-64
2022/11/24 12:52:54;;;;;;;15.43;3.80;;;;;;;;;;5054838;28;20047;-65
2022/11/24 12:55:22;;;;;;;17.05;3.60;;;;;;;;;;5054012;28;20060;-65
2022/11/24 12:57:55;;;;;;;17.38;3.63;;;;;;;;;;5037532;28;20045;-65
2022/11/24 13:00:22;;;;;;;18.98;2.70;;;;;;;;;;5054274;28;20036;-65
2022/11/24 13:02:51;;;;;;;29.10;5.38;;;;;;;;;;5054262;28;20041;-66
2022/11/24 13:05:21;;;;;;;20.33;6.05;;;;;;;;;;5054983;28;20041;-65
2022/11/24 13:07:53;;;;;;;12.95;2.78;;;11.90;99.90;;;;;;5054457;28;20438;-65
2022/11/24 13:10:30;;;;;;;16.75;2.80;;;;;;;;;;5072224;28;20041;-65
2022/11/24 13:12:57;;;;;;;18.67;3.55;;;;;;;;;;5054518;28;20049;-65
2022/11/24 13:15:23;;;;;;;25.17;3.38;;;;;;;;;;5054016;28;20041;-65
2022/11/24 13:17:49;;;;;;;22.17;3.45;;;;;;;;;;5054188;28;20041;-65
2022/11/24 13:20:15;;;;;;;15.70;3.00;;;;;;;;;;5053740;28;20051;-65
2022/11/24 13:22:46;;;;;;;19.48;2.95;;;;;;;;;;5054082;28;20051;-65
2022/11/24 13:25:18;;;;;;;16.27;4.07;;;;;;;;;;5037676;28;20131;-65
2022/11/24 13:27:47;;;;;;;19.33;3.83;;;;;;;;;;5054145;28;20370;-65
2022/11/24 13:30:31;;;;;;;18.23;3.47;;;;;;;;;;5054363;28;20044;-65
2022/11/24 13:33:13;;;;;;;17.73;3.25;;;;;;;;;;5067886;28;20050;-65
2022/11/24 13:35:39;;;;;;;22.35;5.13;;;;;;;;;;5069007;28;20076;-65
2022/11/24 13:38:50;;;;;;;22.33;3.20;;;11.90;99.90;;;;;;5034412;28;20099;-65
2022/11/24 13:41:49;;;;;;;15.88;3.22;;;;;;;;;;5039038;28;20473;-65
2022/11/24 13:44:15;;;;;;;16.20;3.15;;;;;;;;;;5042684;28;20398;-65
2022/11/24 13:46:57;;;;;;;19.52;3.85;;;;;;;;;;5055089;28;20037;-65
2022/11/24 13:49:24;;;;;;;20.67;3.38;;;;;;;;;;5055037;28;20052;-65
2022/11/24 13:51:53;;;;;;;20.50;4.30;;;;;;;;;;5054801;28;20498;-65
2022/11/24 13:54:20;;;;;;;22.75;3.63;;;;;;;;;;5053292;28;20053;-65
2022/11/24 13:56:46;;;;;;;19.83;4.40;;;;;;;;;;5052636;28;20102;-65
2022/11/24 13:59:17;;;;;;;17.08;2.88;;;;;;;;;;5053721;28;20090;-65
2022/11/24 14:01:45;;;;;;;25.45;3.38;;;;;;;;;;5052020;28;20131;-65
2022/11/24 14:04:25;;;;;;;21.25;3.45;;;;;;;;;;5036567;28;20123;-65
2022/11/24 14:06:52;;;;;;;21.23;3.15;;;;;;;;;;5053042;28;20113;-65
2022/11/24 14:09:29;;;;;;;17.25;3.08;;;;;;;;;;5036967;28;20441;-65
2022/11/24 14:12:05;;;;;;;16.40;2.95;;;11.20;99.90;;;;;;5053136;28;20041;-65
2022/11/24 14:14:31;;;;;;;22.20;4.10;;;;;;;;;;5052999;28;20045;-65
2022/11/24 14:17:06;;;;;;;20.08;2.90;;;;;;;;;;5053194;28;20072;-66
2022/11/24 14:19:32;;;;;;;21.75;3.22;;;;;;;;;;5054568;28;20048;-65
2022/11/24 14:21:58;;;;;;;25.35;3.83;;;;;;;;;;5053134;28;20061;-65
2022/11/24 14:24:26;;;;;;;13.70;2.53;;;;;;;;;;5036170;28;20047;-65
2022/11/24 14:26:52;;;;;;;15.45;2.65;;;;;;;;;;5052619;28;20041;-65
2022/11/24 14:29:21;;;;;;;21.48;3.15;;;10.90;99.90;;;;;;5052765;28;20045;-65
2022/11/24 14:31:54;;;;;;;23.55;4.05;;;;;;;;;;5036104;28;20041;-65
2022/11/24 14:34:21;;;;;;;15.95;2.90;;;;;;;;;;5053584;28;20040;-65
2022/11/24 14:36:51;;;;;;;27.38;3.25;;;;;;;;;;5052680;28;20442;-65
2022/11/24 14:39:19;;;;;;;24.40;4.25;;;;;;;;;;5052746;28;20052;-65